createdAt,value
2023-04-11T00:00:29.379Z,3.58
2023-04-11T00:01:26.491Z,4.14
2023-04-11T00:02:23.361Z,4.18
2023-04-11T00:03:20.302Z,4.57
2023-04-11T00:04:17.869Z,4.58
2023-04-11T00:05:15.028Z,4.64
2023-04-11T00:06:11.622Z,4.58
2023-04-11T00:07:08.277Z,4.39
2023-04-11T00:08:05.327Z,4.46
2023-04-11T00:09:01.998Z,4.31
2023-04-11T00:09:58.627Z,4.41
2023-04-11T00:10:55.335Z,4.35
2023-04-11T00:11:52.098Z,4.44
2023-04-11T00:12:48.745Z,4.35
2023-04-11T00:13:45.389Z,4.30
2023-04-11T00:14:45.365Z,4.29
2023-04-11T00:15:42.042Z,4.28
2023-04-11T00:16:39.677Z,4.37
2023-04-11T00:17:37.880Z,4.41
2023-04-11T00:18:36.335Z,4.33
2023-04-11T00:19:33.490Z,3.99
2023-04-11T00:20:30.098Z,4.26
2023-04-11T00:21:26.736Z,4.38
2023-04-11T00:22:24.514Z,4.53
2023-04-11T00:23:21.147Z,4.55
2023-04-11T00:24:18.192Z,4.48
2023-04-11T00:25:15.416Z,4.56
2023-04-11T00:26:12.032Z,4.46
2023-04-11T00:27:08.735Z,4.43
2023-04-11T00:28:05.435Z,4.49
2023-04-11T00:29:02.068Z,4.57
2023-04-11T00:29:58.688Z,4.50
2023-04-11T00:30:55.327Z,4.52
2023-04-11T00:31:52.868Z,4.37
2023-04-11T00:32:50.130Z,4.56
2023-04-11T00:33:46.728Z,4.29
2023-04-11T00:34:43.471Z,4.67
2023-04-11T00:35:40.792Z,4.67
2023-04-11T00:36:37.533Z,4.79
2023-04-11T00:37:36.243Z,4.70
2023-04-11T00:38:33.489Z,4.62
2023-04-11T00:39:33.856Z,4.74
2023-04-11T00:40:31.300Z,4.87
2023-04-11T00:41:28.083Z,4.62
2023-04-11T00:42:24.655Z,4.64
2023-04-11T00:43:21.277Z,4.57
2023-04-11T00:44:17.943Z,4.48
2023-04-11T00:45:14.833Z,4.23
2023-04-11T00:46:11.567Z,4.32
2023-04-11T00:47:08.545Z,4.62
2023-04-11T00:48:05.474Z,4.69
2023-04-11T00:49:02.271Z,4.52
2023-04-11T00:49:59.192Z,4.42
2023-04-11T00:50:56.104Z,4.25
2023-04-11T00:51:53.322Z,4.38
2023-04-11T00:52:50.973Z,4.21
2023-04-11T00:53:48.029Z,4.47
2023-04-11T00:54:44.653Z,4.50
2023-04-11T00:55:41.286Z,4.17
2023-04-11T00:56:37.927Z,4.47
2023-04-11T00:57:34.892Z,4.63
2023-04-11T00:58:33.967Z,4.22
2023-04-11T00:59:31.784Z,4.22
2023-04-11T01:00:29.212Z,3.76
2023-04-11T01:01:25.892Z,4.43
2023-04-11T01:02:25.202Z,4.02
2023-04-11T01:03:22.953Z,4.23
2023-04-11T01:04:21.373Z,4.09
2023-04-11T01:05:19.136Z,4.10
2023-04-11T01:06:18.895Z,4.12
2023-04-11T01:07:17.407Z,4.13
2023-04-11T01:08:15.097Z,4.12
2023-04-11T01:09:12.547Z,3.79
2023-04-11T01:10:10.452Z,4.06
2023-04-11T01:11:09.438Z,3.98
2023-04-11T01:12:06.733Z,3.76
2023-04-11T01:13:03.593Z,3.93
2023-04-11T01:14:00.441Z,3.82
2023-04-11T01:14:57.679Z,3.90
2023-04-11T01:15:54.312Z,4.00
2023-04-11T01:16:51.610Z,3.51
2023-04-11T01:17:48.327Z,4.05
2023-04-11T01:18:44.968Z,4.26
2023-04-11T01:19:41.744Z,4.29
2023-04-11T01:20:38.615Z,3.84
2023-04-11T01:21:37.857Z,3.92
2023-04-11T01:22:36.490Z,4.40
2023-04-11T01:23:34.417Z,4.69
2023-04-11T01:24:31.769Z,4.36
2023-04-11T01:25:28.628Z,4.67
2023-04-11T01:26:25.755Z,4.29
2023-04-11T01:27:22.390Z,4.40
2023-04-11T01:28:19.862Z,4.48
2023-04-11T01:29:16.491Z,4.79
2023-04-11T01:30:13.239Z,4.82
2023-04-11T01:31:09.924Z,4.64
2023-04-11T01:32:06.706Z,4.46
2023-04-11T01:33:03.382Z,4.29
2023-04-11T01:34:04.338Z,4.13
2023-04-11T01:35:03.441Z,4.22
2023-04-11T01:36:00.159Z,4.26
2023-04-11T01:36:57.010Z,4.26
2023-04-11T01:37:54.135Z,4.26
2023-04-11T01:38:50.954Z,4.28
2023-04-11T01:39:47.689Z,4.19
2023-04-11T01:40:45.989Z,4.20
2023-04-11T01:41:43.813Z,4.31
2023-04-11T01:42:40.758Z,3.89
2023-04-11T01:43:37.619Z,4.08
2023-04-11T01:44:36.710Z,4.10
2023-04-11T01:45:33.322Z,4.14
2023-04-11T01:46:30.393Z,3.67
2023-04-11T01:47:27.045Z,4.20
2023-04-11T01:48:23.720Z,4.21
2023-04-11T01:49:21.634Z,4.14
2023-04-11T01:50:18.340Z,3.83
2023-04-11T01:51:15.015Z,3.56
2023-04-11T01:52:11.591Z,3.89
2023-04-11T01:53:08.192Z,3.88
2023-04-11T01:54:05.149Z,4.06
2023-04-11T01:55:01.731Z,4.12
2023-04-11T01:55:58.340Z,3.46
2023-04-11T01:56:55.096Z,3.99
2023-04-11T01:57:51.654Z,3.72
2023-04-11T01:58:48.319Z,3.68
2023-04-11T01:59:44.946Z,3.77
2023-04-11T02:00:41.680Z,3.95
2023-04-11T02:01:38.286Z,3.86
2023-04-11T02:02:35.090Z,3.89
2023-04-11T02:03:31.884Z,3.66
2023-04-11T02:04:28.724Z,3.96
2023-04-11T02:05:25.913Z,3.99
2023-04-11T02:06:22.591Z,3.88
2023-04-11T02:07:21.076Z,4.05
2023-04-11T02:08:17.701Z,3.75
2023-04-11T02:09:14.328Z,4.12
2023-04-11T02:10:11.403Z,4.18
2023-04-11T02:11:08.364Z,4.10
2023-04-11T02:12:05.340Z,3.86
2023-04-11T02:13:01.942Z,3.97
2023-04-11T02:13:58.483Z,3.53
2023-04-11T02:14:55.052Z,3.75
2023-04-11T02:15:51.761Z,3.88
2023-04-11T02:16:56.179Z,3.80
2023-04-11T02:17:54.228Z,3.83
2023-04-11T02:18:51.023Z,3.74
2023-04-11T02:19:47.947Z,3.83
2023-04-11T02:20:44.604Z,3.70
2023-04-11T02:21:41.148Z,3.64
2023-04-11T02:22:37.720Z,3.75
2023-04-11T02:23:34.506Z,3.98
2023-04-11T02:24:31.172Z,4.42
2023-04-11T02:25:27.784Z,4.21
2023-04-11T02:26:26.871Z,4.73
2023-04-11T02:27:23.498Z,4.76
2023-04-11T02:28:20.074Z,4.24
2023-04-11T02:29:17.844Z,4.45
2023-04-11T02:30:14.493Z,4.50
2023-04-11T02:31:13.592Z,4.38
2023-04-11T02:32:10.628Z,4.44
2023-04-11T02:33:07.416Z,4.30
2023-04-11T02:34:04.002Z,4.18
2023-04-11T02:35:00.889Z,3.87
2023-04-11T02:35:57.599Z,4.22
2023-04-11T02:36:54.184Z,4.25
2023-04-11T02:37:50.820Z,3.92
2023-04-11T02:38:47.649Z,4.06
2023-04-11T02:39:44.218Z,3.84
2023-04-11T02:40:41.221Z,3.91
2023-04-11T02:41:42.109Z,3.97
2023-04-11T02:42:40.662Z,3.98
2023-04-11T02:43:37.319Z,3.96
2023-04-11T02:44:33.952Z,3.94
2023-04-11T02:45:30.978Z,3.46
2023-04-11T02:46:27.571Z,3.90
2023-04-11T02:47:24.294Z,3.70
2023-04-11T02:48:20.946Z,3.53
2023-04-11T02:49:17.678Z,3.78
2023-04-11T02:50:14.287Z,3.84
2023-04-11T02:51:11.034Z,3.83
2023-04-11T02:52:07.681Z,3.85
2023-04-11T02:53:04.294Z,3.87
2023-04-11T02:54:00.952Z,3.90
2023-04-11T02:54:57.536Z,3.89
2023-04-11T02:55:54.150Z,3.89
2023-04-11T02:56:51.080Z,4.02
2023-04-11T02:57:47.703Z,3.98
2023-04-11T02:58:45.660Z,3.98
2023-04-11T02:59:42.260Z,4.02
2023-04-11T03:00:39.158Z,4.15
2023-04-11T03:01:37.692Z,4.29
2023-04-11T03:02:35.013Z,4.06
2023-04-11T03:03:32.086Z,4.07
2023-04-11T03:04:28.870Z,3.92
2023-04-11T03:05:25.543Z,4.15
2023-04-11T03:06:23.373Z,4.15
2023-04-11T03:07:20.005Z,4.22
2023-04-11T03:08:16.663Z,4.18
2023-04-11T03:09:13.527Z,4.13
2023-04-11T03:10:11.002Z,4.16
2023-04-11T03:11:07.730Z,3.77
2023-04-11T03:12:04.420Z,4.13
2023-04-11T03:13:01.023Z,4.20
2023-04-11T03:13:57.677Z,4.14
2023-04-11T03:14:54.323Z,4.10
2023-04-11T03:15:51.052Z,4.09
2023-04-11T03:16:47.662Z,3.98
2023-04-11T03:17:44.335Z,3.91
2023-04-11T03:18:41.029Z,3.50
2023-04-11T03:19:37.608Z,3.94
2023-04-11T03:20:34.318Z,3.97
2023-04-11T03:21:31.689Z,4.01
2023-04-11T03:22:28.392Z,3.85
2023-04-11T03:23:25.066Z,3.85
2023-04-11T03:24:22.506Z,3.72
2023-04-11T03:25:19.201Z,3.55
2023-04-11T03:26:16.042Z,3.85
2023-04-11T03:27:12.643Z,3.83
2023-04-11T03:28:09.233Z,3.84
2023-04-11T03:29:06.080Z,3.79
2023-04-11T03:30:02.859Z,3.78
2023-04-11T03:30:59.481Z,3.65
2023-04-11T03:31:56.050Z,3.77
2023-04-11T03:32:53.172Z,3.91
2023-04-11T03:33:49.865Z,3.86
2023-04-11T03:34:46.454Z,4.02
2023-04-11T03:35:43.187Z,3.98
2023-04-11T03:36:39.767Z,4.06
2023-04-11T03:37:36.697Z,3.56
2023-04-11T03:38:33.371Z,3.83
2023-04-11T03:39:29.975Z,4.03
2023-04-11T03:40:26.660Z,4.20
2023-04-11T03:41:23.381Z,4.22
2023-04-11T03:42:21.001Z,4.17
2023-04-11T03:43:18.052Z,4.16
2023-04-11T03:44:15.013Z,4.20
2023-04-11T03:45:11.659Z,4.02
2023-04-11T03:46:08.375Z,3.76
2023-04-11T03:47:05.234Z,3.80
2023-04-11T03:48:01.972Z,3.75
2023-04-11T03:48:58.820Z,4.06
2023-04-11T03:49:55.472Z,4.20
2023-04-11T03:50:52.764Z,4.07
2023-04-11T03:51:49.389Z,3.97
2023-04-11T03:52:45.962Z,3.85
2023-04-11T03:53:42.624Z,3.78
2023-04-11T03:54:39.280Z,3.88
2023-04-11T03:55:35.841Z,3.59
2023-04-11T03:56:32.440Z,3.89
2023-04-11T03:57:29.245Z,3.93
2023-04-11T03:58:26.405Z,3.53
2023-04-11T03:59:22.991Z,4.01
2023-04-11T04:00:20.651Z,4.19
2023-04-11T04:01:17.247Z,4.17
2023-04-11T04:02:16.112Z,4.31
2023-04-11T04:03:13.798Z,3.99
2023-04-11T04:04:10.699Z,4.26
2023-04-11T04:05:07.658Z,4.34
2023-04-11T04:06:04.445Z,4.26
2023-04-11T04:07:01.863Z,4.32
2023-04-11T04:07:58.506Z,4.24
2023-04-11T04:08:55.255Z,4.49
2023-04-11T04:09:52.397Z,4.61
2023-04-11T04:10:49.145Z,4.31
2023-04-11T04:11:45.699Z,3.93
2023-04-11T04:12:42.339Z,4.31
2023-04-11T04:13:39.040Z,4.10
2023-04-11T04:14:35.697Z,4.05
2023-04-11T04:15:32.733Z,4.18
2023-04-11T04:16:29.309Z,4.07
2023-04-11T04:17:25.943Z,4.09
2023-04-11T04:18:22.655Z,4.02
2023-04-11T04:19:19.282Z,3.93
2023-04-11T04:20:15.986Z,3.98
2023-04-11T04:21:13.875Z,4.03
2023-04-11T04:22:12.308Z,4.20
2023-04-11T04:23:08.989Z,4.17
2023-04-11T04:24:06.075Z,4.15
2023-04-11T04:25:02.880Z,4.06
2023-04-11T04:26:02.316Z,4.17
2023-04-11T04:27:00.971Z,4.30
2023-04-11T04:27:58.247Z,4.40
2023-04-11T04:28:57.489Z,4.41
2023-04-11T04:30:03.615Z,4.43
2023-04-11T04:31:02.274Z,4.42
2023-04-11T04:32:00.052Z,4.19
2023-04-11T04:32:58.948Z,4.05
2023-04-11T04:33:58.728Z,4.04
2023-04-11T04:34:55.376Z,4.02
2023-04-11T04:35:52.046Z,4.05
2023-04-11T04:36:49.413Z,4.18
2023-04-11T04:37:46.260Z,4.06
2023-04-11T04:38:45.904Z,4.22
2023-04-11T04:39:42.447Z,4.31
2023-04-11T04:40:41.823Z,4.28
2023-04-11T04:41:39.209Z,4.30
2023-04-11T04:42:36.481Z,4.29
2023-04-11T04:43:33.183Z,4.52
2023-04-11T04:44:29.917Z,4.42
2023-04-11T04:45:26.749Z,4.64
2023-04-11T04:46:23.635Z,4.54
2023-04-11T04:47:23.771Z,4.53
2023-04-11T04:48:20.711Z,4.10
2023-04-11T04:49:17.275Z,4.45
2023-04-11T04:50:13.853Z,4.48
2023-04-11T04:51:10.482Z,4.39
2023-04-11T04:52:07.122Z,4.29
2023-04-11T04:53:03.764Z,4.23
2023-04-11T04:54:00.467Z,4.31
2023-04-11T04:54:58.298Z,4.26
2023-04-11T04:55:54.864Z,4.37
2023-04-11T04:56:51.438Z,4.54
2023-04-11T04:57:48.047Z,4.59
2023-04-11T04:58:47.278Z,4.52
2023-04-11T04:59:47.124Z,4.84
2023-04-11T05:00:44.112Z,5.11
2023-04-11T05:01:40.800Z,5.21
2023-04-11T05:02:38.083Z,5.16
2023-04-11T05:03:36.090Z,5.03
2023-04-11T05:04:34.195Z,4.45
2023-04-11T05:05:30.922Z,4.86
2023-04-11T05:06:29.314Z,4.66
2023-04-11T05:07:26.515Z,4.62
2023-04-11T05:08:23.143Z,4.86
2023-04-11T05:09:19.792Z,5.03
2023-04-11T05:10:16.376Z,5.22
2023-04-11T05:11:12.944Z,4.80
2023-04-11T05:12:09.541Z,5.26
2023-04-11T05:13:06.173Z,5.58
2023-04-11T05:14:02.781Z,5.46
2023-04-11T05:14:59.408Z,5.21
2023-04-11T05:15:56.172Z,5.20
2023-04-11T05:16:52.807Z,5.08
2023-04-11T05:17:49.641Z,5.33
2023-04-11T05:18:46.667Z,5.20
2023-04-11T05:19:43.248Z,5.22
2023-04-11T05:20:39.781Z,5.29
2023-04-11T05:21:39.640Z,4.87
2023-04-11T05:22:38.056Z,4.85
2023-04-11T05:23:34.730Z,4.85
2023-04-11T05:24:31.356Z,4.99
2023-04-11T05:25:28.045Z,4.73
2023-04-11T05:26:24.681Z,5.30
2023-04-11T05:27:21.369Z,5.29
2023-04-11T05:28:17.996Z,5.06
2023-04-11T05:29:14.607Z,4.89
2023-04-11T05:30:11.766Z,5.36
2023-04-11T05:31:08.809Z,5.37
2023-04-11T05:32:05.876Z,5.42
2023-04-11T05:33:02.565Z,5.55
2023-04-11T05:33:59.328Z,4.92
2023-04-11T05:34:59.094Z,5.32
2023-04-11T05:35:56.798Z,5.24
2023-04-11T05:36:53.461Z,5.11
2023-04-11T05:37:50.157Z,4.65
2023-04-11T05:38:47.003Z,5.39
2023-04-11T05:39:43.616Z,5.53
2023-04-11T05:40:40.254Z,6.19
2023-04-11T05:41:36.813Z,5.91
2023-04-11T05:42:33.395Z,5.61
2023-04-11T05:43:30.066Z,6.17
2023-04-11T05:44:26.615Z,6.25
2023-04-11T05:45:23.532Z,6.11
2023-04-11T05:46:20.904Z,6.14
2023-04-11T05:47:17.538Z,6.03
2023-04-11T05:48:16.167Z,5.60
2023-04-11T05:49:12.954Z,5.52
2023-04-11T05:50:10.837Z,5.60
2023-04-11T05:51:08.105Z,5.50
2023-04-11T05:52:04.895Z,5.30
2023-04-11T05:53:01.620Z,5.49
2023-04-11T05:53:58.557Z,5.85
2023-04-11T05:54:55.522Z,5.83
2023-04-11T05:55:52.250Z,5.82
2023-04-11T05:56:48.845Z,6.30
2023-04-11T05:57:45.583Z,6.43
2023-04-11T05:58:43.455Z,6.49
2023-04-11T05:59:40.076Z,6.66
2023-04-11T06:00:38.300Z,6.51
2023-04-11T06:01:34.905Z,5.58
2023-04-11T06:02:31.725Z,6.29
2023-04-11T06:03:28.626Z,6.72
2023-04-11T06:04:25.658Z,6.72
2023-04-11T06:05:22.616Z,6.50
2023-04-11T06:06:19.252Z,6.57
2023-04-11T06:07:15.955Z,6.80
2023-04-11T06:08:12.705Z,6.55
2023-04-11T06:09:10.906Z,6.91
2023-04-11T06:10:08.322Z,7.05
2023-04-11T06:11:05.239Z,7.38
2023-04-11T06:12:03.537Z,7.14
2023-04-11T06:13:00.381Z,7.08
2023-04-11T06:13:57.242Z,7.53
2023-04-11T06:14:54.020Z,7.38
2023-04-11T06:15:50.978Z,7.30
2023-04-11T06:16:47.642Z,7.42
2023-04-11T06:17:45.314Z,7.59
2023-04-11T06:18:41.927Z,7.38
2023-04-11T06:19:38.744Z,7.46
2023-04-11T06:20:35.502Z,7.81
2023-04-11T06:21:32.378Z,7.84
2023-04-11T06:22:28.991Z,7.41
2023-04-11T06:23:25.601Z,7.13
2023-04-11T06:24:36.216Z,7.33
2023-04-11T06:25:32.910Z,7.33
2023-04-11T06:26:29.531Z,6.99
2023-04-11T06:27:26.831Z,7.59
2023-04-11T06:28:23.503Z,8.04
2023-04-11T06:29:20.113Z,7.46
2023-04-11T06:30:16.878Z,7.46
2023-04-11T06:31:13.639Z,6.90
2023-04-11T06:32:12.254Z,7.31
2023-04-11T06:33:08.911Z,7.65
2023-04-11T06:34:05.594Z,7.49
2023-04-11T06:35:02.459Z,7.34
2023-04-11T06:35:59.123Z,7.40
2023-04-11T06:36:56.059Z,7.58
2023-04-11T06:37:52.878Z,7.28
2023-04-11T06:38:49.446Z,7.12
2023-04-11T06:39:46.130Z,7.41
2023-04-11T06:40:42.708Z,7.54
2023-04-11T06:41:39.308Z,7.57
2023-04-11T06:42:35.944Z,7.52
2023-04-11T06:43:32.520Z,7.58
2023-04-11T06:44:29.382Z,7.69
2023-04-11T06:45:26.045Z,7.48
2023-04-11T06:46:22.727Z,7.58
2023-04-11T06:47:19.477Z,7.32
2023-04-11T06:48:18.070Z,7.41
2023-04-11T06:49:14.718Z,7.74
2023-04-11T06:50:11.544Z,7.39
2023-04-11T06:51:10.413Z,7.34
2023-04-11T06:52:07.081Z,7.59
2023-04-11T06:53:03.690Z,7.57
2023-04-11T06:54:00.434Z,7.41
2023-04-11T06:54:57.170Z,7.66
2023-04-11T06:55:53.884Z,7.71
2023-04-11T06:56:53.649Z,7.63
2023-04-11T06:57:50.329Z,7.85
2023-04-11T06:58:46.912Z,7.46
2023-04-11T06:59:43.657Z,7.46
2023-04-11T07:00:40.234Z,7.79
2023-04-11T07:01:39.589Z,7.92
2023-04-11T07:02:36.658Z,7.55
2023-04-11T07:03:33.565Z,7.21
2023-04-11T07:04:30.342Z,7.82
2023-04-11T07:05:27.524Z,7.89
2023-04-11T07:06:24.153Z,8.21
2023-04-11T07:07:21.021Z,8.77
2023-04-11T07:08:17.582Z,8.83
2023-04-11T07:09:14.640Z,7.95
2023-04-11T07:10:11.380Z,7.46
2023-04-11T07:11:08.168Z,7.48
2023-04-11T07:12:05.461Z,7.35
2023-04-11T07:13:02.081Z,7.67
2023-04-11T07:14:02.686Z,7.99
2023-04-11T07:14:59.388Z,8.07
2023-04-11T07:15:56.108Z,8.19
2023-04-11T07:16:52.753Z,8.58
2023-04-11T07:17:51.416Z,8.79
2023-04-11T07:18:49.381Z,8.64
2023-04-11T07:19:46.685Z,8.69
2023-04-11T07:20:43.359Z,8.81
2023-04-11T07:21:39.948Z,8.33
2023-04-11T07:22:36.702Z,8.28
2023-04-11T07:23:33.335Z,8.68
2023-04-11T07:24:30.610Z,8.28
2023-04-11T07:25:30.487Z,8.18
2023-04-11T07:26:32.025Z,8.63
2023-04-11T07:27:28.880Z,8.25
2023-04-11T07:28:25.931Z,8.58
2023-04-11T07:29:22.502Z,8.96
2023-04-11T07:30:19.369Z,8.51
2023-04-11T07:31:18.090Z,8.13
2023-04-11T07:32:14.765Z,8.64
2023-04-11T07:33:11.471Z,8.92
2023-04-11T07:34:08.181Z,9.58
2023-04-11T07:35:05.030Z,9.20
2023-04-11T07:36:01.773Z,9.19
2023-04-11T07:37:01.061Z,8.73
2023-04-11T07:37:58.360Z,9.13
2023-04-11T07:38:55.071Z,8.69
2023-04-11T07:39:52.104Z,8.41
2023-04-11T07:40:48.720Z,8.81
2023-04-11T07:41:45.338Z,9.08
2023-04-11T07:42:42.318Z,8.35
2023-04-11T07:43:39.490Z,9.04
2023-04-11T07:44:36.197Z,9.44
2023-04-11T07:45:34.201Z,9.77
2023-04-11T07:46:30.952Z,9.73
2023-04-11T07:47:27.629Z,9.30
2023-04-11T07:48:26.276Z,8.44
2023-04-11T07:49:23.038Z,9.42
2023-04-11T07:50:20.055Z,9.67
2023-04-11T07:51:17.209Z,10.06
2023-04-11T07:52:14.580Z,10.04
2023-04-11T07:53:11.234Z,9.94
2023-04-11T07:54:09.459Z,9.11
2023-04-11T07:55:06.703Z,9.72
2023-04-11T07:56:05.036Z,9.79
2023-04-11T07:57:02.135Z,9.82
2023-04-11T07:57:58.841Z,10.26
2023-04-11T07:58:57.113Z,10.21
2023-04-11T07:59:53.699Z,10.33
2023-04-11T08:00:51.060Z,10.93
2023-04-11T08:01:47.773Z,10.68
2023-04-11T08:02:44.584Z,10.52
2023-04-11T08:03:41.537Z,10.52
2023-04-11T08:04:39.059Z,10.04
2023-04-11T08:05:36.943Z,10.27
2023-04-11T08:06:33.569Z,10.10
2023-04-11T08:07:30.447Z,9.67
2023-04-11T08:08:27.080Z,9.08
2023-04-11T08:09:23.811Z,9.36
2023-04-11T08:10:20.383Z,10.04
2023-04-11T08:11:17.170Z,9.86
2023-04-11T08:12:13.816Z,10.22
2023-04-11T08:13:12.762Z,10.46
2023-04-11T08:14:09.359Z,10.03
2023-04-11T08:15:07.036Z,10.76
2023-04-11T08:16:06.559Z,10.85
2023-04-11T08:17:04.640Z,9.69
2023-04-11T08:18:05.113Z,9.60
2023-04-11T08:19:01.986Z,10.01
2023-04-11T08:20:01.714Z,10.19
2023-04-11T08:20:58.773Z,9.52
2023-04-11T08:21:55.464Z,9.65
2023-04-11T08:22:52.090Z,9.51
2023-04-11T08:23:49.747Z,10.05
2023-04-11T08:24:46.448Z,9.78
2023-04-11T08:25:43.387Z,10.49
2023-04-11T08:26:40.008Z,10.65
2023-04-11T08:27:36.876Z,10.60
2023-04-11T08:28:33.549Z,10.58
2023-04-11T08:29:30.126Z,10.11
2023-04-11T08:30:27.486Z,10.28
2023-04-11T08:31:24.198Z,9.77
2023-04-11T08:32:20.873Z,9.56
2023-04-11T08:33:17.474Z,9.95
2023-04-11T08:34:14.182Z,9.46
2023-04-11T08:35:11.051Z,9.52
2023-04-11T08:36:10.333Z,10.14
2023-04-11T08:37:07.459Z,9.63
2023-04-11T08:38:04.090Z,9.44
2023-04-11T08:39:01.102Z,9.18
2023-04-11T08:39:57.875Z,9.54
2023-04-11T08:40:55.508Z,9.59
2023-04-11T08:41:52.103Z,10.46
2023-04-11T08:42:49.129Z,10.22
2023-04-11T08:43:47.044Z,9.13
2023-04-11T08:44:43.614Z,8.35
2023-04-11T08:45:41.231Z,9.01
2023-04-11T08:46:41.851Z,8.76
2023-04-11T08:47:38.542Z,8.62
2023-04-11T08:48:35.634Z,9.42
2023-04-11T08:49:32.387Z,10.05
2023-04-11T08:50:29.046Z,9.99
2023-04-11T08:51:28.960Z,10.98
2023-04-11T08:52:26.084Z,11.29
2023-04-11T08:53:24.972Z,11.35
2023-04-11T08:54:21.653Z,11.36
2023-04-11T08:55:18.339Z,11.44
2023-04-11T08:56:18.028Z,11.28
2023-04-11T08:57:25.938Z,11.22
2023-04-11T08:58:22.828Z,10.90
2023-04-11T08:59:19.505Z,10.76
2023-04-11T09:00:19.180Z,11.32
2023-04-11T09:01:29.650Z,10.22
2023-04-11T09:02:27.528Z,10.56
2023-04-11T09:03:24.366Z,10.91
2023-04-11T09:04:21.063Z,10.83
2023-04-11T09:05:32.686Z,11.16
2023-04-11T09:06:30.970Z,11.30
2023-04-11T09:07:29.078Z,11.05
2023-04-11T09:08:38.315Z,11.26
2023-04-11T09:09:36.892Z,11.13
2023-04-11T09:10:34.233Z,11.27
2023-04-11T09:11:31.145Z,11.37
2023-04-11T09:12:30.299Z,10.93
2023-04-11T09:13:27.904Z,10.75
2023-04-11T09:14:26.905Z,10.63
2023-04-11T09:15:29.220Z,10.15
2023-04-11T09:16:26.108Z,10.19
2023-04-11T09:17:22.765Z,10.42
2023-04-11T09:18:35.564Z,10.77
2023-04-11T09:19:34.121Z,10.78
2023-04-11T09:20:31.367Z,10.89
2023-04-11T09:21:30.799Z,11.40
2023-04-11T09:22:36.210Z,11.13
2023-04-11T09:23:33.312Z,11.45
2023-04-11T09:24:30.546Z,11.29
2023-04-11T09:25:27.842Z,10.92
2023-04-11T09:26:29.521Z,10.54
2023-04-11T09:27:26.409Z,10.47
2023-04-11T09:28:24.041Z,10.66
2023-04-11T09:29:47.647Z,11.49
2023-04-11T09:30:52.432Z,10.68
2023-04-11T09:31:49.107Z,10.60
2023-04-11T09:32:46.346Z,10.78
2023-04-11T09:33:57.276Z,11.16
2023-04-11T09:35:15.617Z,10.93
2023-04-11T09:36:19.954Z,10.86
2023-04-11T09:37:16.692Z,11.11
2023-04-11T09:38:13.326Z,10.79
2023-04-11T09:39:20.142Z,11.03
2023-04-11T09:40:20.640Z,11.04
2023-04-11T09:41:30.104Z,11.55
2023-04-11T09:42:26.756Z,12.15
2023-04-11T09:43:23.406Z,11.98
2023-04-11T09:44:20.085Z,11.29
2023-04-11T09:45:24.297Z,10.98
2023-04-11T09:46:22.170Z,10.96
2023-04-11T09:47:19.167Z,11.31
2023-04-11T09:48:16.545Z,11.79
2023-04-11T09:49:13.241Z,11.10
2023-04-11T09:50:10.139Z,10.88
2023-04-11T09:51:07.218Z,10.38
2023-04-11T09:52:04.129Z,10.52
2023-04-11T09:53:01.181Z,11.17
2023-04-11T09:53:58.900Z,11.34
2023-04-11T09:54:55.966Z,11.56
2023-04-11T09:55:52.976Z,11.33
2023-04-11T09:56:50.301Z,11.43
2023-04-11T09:57:48.823Z,11.63
2023-04-11T09:58:47.666Z,11.54
2023-04-11T09:59:44.285Z,11.28
2023-04-11T10:00:43.694Z,10.22
2023-04-11T10:01:41.359Z,10.33
2023-04-11T10:02:38.131Z,10.29
2023-04-11T10:03:36.825Z,10.09
2023-04-11T10:04:34.601Z,10.26
2023-04-11T10:05:31.995Z,10.17
2023-04-11T10:06:41.492Z,10.49
2023-04-11T10:08:05.933Z,10.17
2023-04-11T10:09:11.490Z,10.18
2023-04-11T10:10:08.820Z,10.77
2023-04-11T10:11:08.793Z,11.01
2023-04-11T10:12:06.153Z,11.60
2023-04-11T10:13:03.642Z,11.86
2023-04-11T10:14:00.336Z,11.77
2023-04-11T10:14:56.976Z,12.05
2023-04-11T10:16:16.565Z,12.50
2023-04-11T10:17:22.766Z,11.69
2023-04-11T10:18:19.821Z,12.29
2023-04-11T10:19:19.424Z,12.69
2023-04-11T10:20:43.990Z,12.15
2023-04-11T10:21:42.740Z,13.36
2023-04-11T10:22:46.542Z,13.72
2023-04-11T10:24:13.437Z,13.50
2023-04-11T10:25:22.051Z,12.92
2023-04-11T10:26:18.687Z,12.42
2023-04-11T10:27:15.891Z,12.21
2023-04-11T10:28:30.206Z,12.21
2023-04-11T10:29:29.977Z,11.91
2023-04-11T10:30:42.062Z,12.51
2023-04-11T10:32:11.149Z,12.26
2023-04-11T10:33:17.421Z,11.20
2023-04-11T10:34:16.378Z,11.79
2023-04-11T10:35:22.961Z,11.63
2023-04-11T10:36:22.168Z,12.24
2023-04-11T10:37:34.626Z,11.82
2023-04-11T10:38:37.400Z,12.35
2023-04-11T10:39:52.296Z,12.55
2023-04-11T10:41:18.035Z,11.99
2023-04-11T10:42:42.441Z,12.59
2023-04-11T10:43:39.344Z,12.05
2023-04-11T10:44:36.557Z,12.44
2023-04-11T10:45:37.876Z,12.70
2023-04-11T10:46:48.609Z,12.27
2023-04-11T10:47:57.352Z,11.45
2023-04-11T10:49:05.108Z,11.67
2023-04-11T10:50:01.823Z,11.22
2023-04-11T10:50:58.395Z,11.39
2023-04-11T10:52:18.318Z,11.78
2023-04-11T10:53:36.435Z,11.88
2023-04-11T10:54:33.114Z,11.99
2023-04-11T10:55:33.034Z,11.16
2023-04-11T10:57:01.879Z,10.96
2023-04-11T10:58:16.451Z,10.82
2023-04-11T10:59:39.033Z,11.12
2023-04-11T11:00:50.729Z,11.34
2023-04-11T11:01:55.883Z,11.17
2023-04-11T11:02:52.959Z,10.52
2023-04-11T11:03:53.878Z,10.93
2023-04-11T11:04:51.034Z,10.55
2023-04-11T11:05:56.985Z,10.73
2023-04-11T11:06:57.308Z,10.61
2023-04-11T11:07:54.253Z,10.84
2023-04-11T11:08:50.878Z,11.11
2023-04-11T11:09:49.524Z,10.95
2023-04-11T11:10:46.439Z,10.49
2023-04-11T11:11:43.049Z,10.34
2023-04-11T11:12:53.481Z,10.64
2023-04-11T11:13:52.262Z,10.28
2023-04-11T11:14:48.848Z,10.67
2023-04-11T11:15:49.971Z,10.63
2023-04-11T11:16:46.824Z,10.44
2023-04-11T11:17:43.579Z,10.34
2023-04-11T11:18:40.681Z,9.89
2023-04-11T11:19:37.702Z,10.30
2023-04-11T11:20:37.403Z,10.62
2023-04-11T11:21:34.816Z,10.10
2023-04-11T11:22:31.604Z,9.65
2023-04-11T11:23:28.252Z,9.88
2023-04-11T11:24:26.172Z,9.81
2023-04-11T11:25:22.870Z,10.12
2023-04-11T11:26:19.498Z,10.11
2023-04-11T11:27:24.108Z,9.77
2023-04-11T11:28:21.182Z,9.88
2023-04-11T11:29:29.218Z,10.35
2023-04-11T11:30:25.969Z,10.62
2023-04-11T11:31:34.799Z,10.95
2023-04-11T11:32:32.966Z,12.17
2023-04-11T11:33:29.630Z,12.69
2023-04-11T11:34:31.757Z,12.17
2023-04-11T11:35:28.513Z,12.28
2023-04-11T11:36:25.302Z,11.78
2023-04-11T11:37:23.280Z,10.73
2023-04-11T11:38:21.134Z,10.60
2023-04-11T11:39:19.478Z,11.70
2023-04-11T11:40:17.345Z,11.68
2023-04-11T11:41:15.774Z,12.53
2023-04-11T11:42:12.512Z,12.41
2023-04-11T11:43:09.391Z,12.25
2023-04-11T11:44:06.639Z,11.59
2023-04-11T11:45:22.624Z,11.60
2023-04-11T11:46:19.285Z,12.00
2023-04-11T11:47:16.428Z,12.32
2023-04-11T11:48:24.202Z,11.79
2023-04-11T11:49:21.142Z,12.18
2023-04-11T11:50:30.883Z,12.01
2023-04-11T11:51:39.024Z,11.11
2023-04-11T11:52:39.797Z,11.30
2023-04-11T11:53:36.665Z,12.33
2023-04-11T11:54:43.225Z,12.49
2023-04-11T11:55:40.552Z,12.35
2023-04-11T11:56:38.247Z,11.78
2023-04-11T11:57:35.783Z,11.89
2023-04-11T11:58:43.125Z,12.10
2023-04-11T11:59:39.889Z,12.26
2023-04-11T12:00:40.796Z,12.61
2023-04-11T12:01:38.087Z,12.21
2023-04-11T12:02:36.375Z,12.07
2023-04-11T12:03:34.457Z,12.16
2023-04-11T12:04:32.214Z,11.90
2023-04-11T12:05:31.914Z,12.11
2023-04-11T12:06:31.692Z,11.53
2023-04-11T12:07:32.662Z,11.69
2023-04-11T12:08:33.362Z,11.85
2023-04-11T12:09:33.535Z,12.16
2023-04-11T12:10:39.441Z,11.84
2023-04-11T12:11:40.499Z,12.39
2023-04-11T12:12:42.058Z,12.45
2023-04-11T12:13:38.728Z,12.55
2023-04-11T12:14:35.381Z,11.60
2023-04-11T12:15:35.506Z,11.40
2023-04-11T12:16:32.954Z,11.37
2023-04-11T12:17:35.587Z,11.68
2023-04-11T12:18:34.203Z,10.82
2023-04-11T12:19:30.744Z,11.01
2023-04-11T12:20:27.359Z,11.56
2023-04-11T12:21:23.940Z,11.18
2023-04-11T12:22:20.773Z,11.63
2023-04-11T12:23:18.292Z,12.05
2023-04-11T12:24:14.906Z,11.75
2023-04-11T12:25:15.079Z,11.79
2023-04-11T12:26:11.679Z,11.62
2023-04-11T12:27:09.029Z,11.46
2023-04-11T12:28:08.577Z,11.46
2023-04-11T12:29:07.237Z,11.70
2023-04-11T12:30:04.812Z,11.67
2023-04-11T12:31:01.541Z,11.47
2023-04-11T12:31:58.142Z,11.61
2023-04-11T12:32:55.060Z,11.74
2023-04-11T12:33:51.809Z,11.57
2023-04-11T12:34:48.502Z,11.71
2023-04-11T12:35:45.225Z,11.89
2023-04-11T12:36:42.290Z,11.98
2023-04-11T12:37:39.064Z,12.05
2023-04-11T12:38:35.925Z,11.91
2023-04-11T12:39:32.585Z,11.88
2023-04-11T12:40:29.897Z,11.37
2023-04-11T12:42:27.451Z,11.52
2023-04-11T12:43:24.362Z,11.95
2023-04-11T12:44:21.178Z,11.81
2023-04-11T12:45:17.845Z,11.93
2023-04-11T12:46:14.621Z,11.84
2023-04-11T12:47:11.253Z,12.26
2023-04-11T12:48:08.530Z,12.88
2023-04-11T12:49:05.133Z,12.69